Time;durP1;ratioP1;P1;durP2;ratioP2;P2;SDS_P1;SDS_P2;PMS_P1;PMS_P2;Temp;Humidity;BMP_temperature;BMP_pressure;BME280_temperature;BME280_humidity;BME280_pressure;Samples;Min_cycle;Max_cycle;Signal;HPM_P1;HPM_P2
2022/06/28 00:00:10;;;;;;;7.03;6.43;;;;;;;;;;1611312;30;22408;-64
2022/06/28 00:01:03;;;;;;;8.63;7.05;;;;;;;;;;1610616;30;21995;-64
2022/06/28 00:01:54;;;;;;;7.68;7.00;;;;;;;;;;1608465;30;22426;-64
2022/06/28 00:02:46;;;;;;;7.68;7.03;;;;;;;;;;1611348;30;21668;-64
2022/06/28 00:03:38;;;;;;;7.72;7.13;;;;;;;;;;1610087;30;22706;-64
2022/06/28 00:04:30;;;;;;;7.30;6.70;;;;;;;;;;1608404;30;22489;-64
2022/06/28 00:05:21;;;;;;;8.18;7.30;;;;;;;;;;1612163;30;21836;-64
2022/06/28 00:06:14;;;;;;;9.60;7.32;;;;;;;;;;1609204;30;21809;-64
2022/06/28 00:07:05;;;;;;;8.02;7.07;;;;;;;;;;1608581;30;21700;-64
2022/06/28 00:07:58;;;;;;;8.55;7.65;;;;;;;;;;1612544;30;21618;-64
2022/06/28 00:08:51;;;;;;;7.95;7.18;;;;;;;;;;1610401;30;21674;-65
2022/06/28 00:09:43;;;;;;;7.25;6.53;;;;;;;;;;1607509;30;21617;-64
2022/06/28 00:10:34;;;;;;;7.93;6.93;;;;;;;;;;1612604;30;22515;-65
2022/06/28 00:11:26;;;;;;;7.82;7.13;;;;;;;;;;1610316;30;22184;-64
2022/06/28 00:12:18;;;;;;;7.22;6.57;;;;;;;;;;1607921;30;21639;-64
2022/06/28 00:13:10;;;;;;;7.03;6.50;;;;;;;;;;1612307;30;21691;-64
2022/06/28 00:14:01;;;;;;;8.10;7.43;;;;;;;;;;1608855;30;21653;-64
2022/06/28 00:16:08;;;;;;;7.18;6.57;;;;;;;;;;1587469;30;21622;-65
2022/06/28 00:17:00;;;;;;;7.18;6.50;;;;;;;;;;1586812;30;22238;-65
2022/06/28 00:17:52;;;;;;;7.13;6.57;;;;;;;;;;1595673;30;22167;-65
2022/06/28 00:18:44;;;;;;;8.50;7.07;;;;;;;;;;1607051;30;21691;-64
2022/06/28 00:19:37;;;;;;;6.85;6.45;;;;;;;;;;1606900;30;21753;-65
2022/06/28 00:20:28;;;;;;;8.43;7.10;;;;;;;;;;1608338;30;22051;-65
2022/06/28 00:21:21;;;;;;;7.43;6.72;;;;;;;;;;1611515;30;21623;-65
2022/06/28 00:22:12;;;;;;;8.75;6.43;;;;;;;;;;1610360;30;22318;-64
2022/06/28 00:23:04;;;;;;;7.25;6.70;;;;;;;;;;1607654;30;22682;-64
2022/06/28 00:23:57;;;;;;;9.63;6.95;;;;;;;;;;1610199;30;22043;-64
2022/06/28 00:24:49;;;;;;;6.88;6.38;;;;;;;;;;1608036;30;21613;-64
2022/06/28 00:25:40;;;;;;;7.32;6.63;;;;;;;;;;1608218;30;21764;-64
2022/06/28 00:26:32;;;;;;;7.47;6.68;;;;;;;;;;1611943;30;21619;-64
2022/06/28 00:27:24;;;;;;;8.98;7.07;;;;;;;;;;1611357;30;22310;-64
2022/06/28 00:28:16;;;;;;;6.68;6.05;;;;;;;;;;1609489;30;21890;-64
2022/06/28 00:29:07;;;;;;;7.32;6.72;;;;;;;;;;1609205;30;22317;-64
2022/06/28 00:30:00;;;;;;;7.50;6.55;;;;;;;;;;1611357;30;22034;-65
2022/06/28 00:30:51;;;;;;;8.05;7.05;;;;;;;;;;1610738;30;21601;-64
2022/06/28 00:31:44;;;;;;;6.90;6.40;;;;;;;;;;1608975;30;22405;-64
2022/06/28 00:32:35;;;;;;;8.15;6.97;;;;;;;;;;1611481;30;21617;-64
2022/06/28 00:33:27;;;;;;;13.00;6.72;;;;;;;;;;1610706;30;21928;-64
2022/06/28 00:34:18;;;;;;;8.75;6.65;;;;;;;;;;1609197;30;21675;-65
2022/06/28 00:35:11;;;;;;;7.40;6.80;;;;;;;;;;1612400;30;21980;-64
2022/06/28 00:36:02;;;;;;;6.72;6.28;;;;;;;;;;1610557;30;21773;-64
2022/06/28 00:36:55;;;;;;;6.90;6.50;;;;;;;;;;1609675;30;21817;-65
2022/06/28 00:37:46;;;;;;;7.00;6.50;;;;;;;;;;1613127;30;21772;-64
2022/06/28 00:38:38;;;;;;;8.50;6.82;;;;;;;;;;1608943;30;22050;-64
2022/06/28 00:39:31;;;;;;;9.80;6.63;;;;;;;;;;1609384;30;21749;-64
2022/06/28 00:40:24;;;;;;;6.90;6.30;;;;;;;;;;1612690;30;22272;-64
2022/06/28 00:41:15;;;;;;;7.03;6.30;;;;;;;;;;1610986;30;21635;-64
2022/06/28 00:42:09;;;;;;;9.77;7.25;;;;;;;;;;1609272;30;22399;-66
2022/06/28 00:43:00;;;;;;;7.25;6.75;;;;;;;;;;1613505;30;21628;-64
2022/06/28 00:43:53;;;;;;;7.20;6.55;;;;;;;;;;1610044;30;21643;-64
2022/06/28 00:44:44;;;;;;;7.18;5.97;;;;;;;;;;1608204;30;21623;-64
2022/06/28 00:45:37;;;;;;;7.80;6.30;;;;;;;;;;1613415;30;21682;-64
2022/06/28 00:46:29;;;;;;;8.90;6.13;;;;;;;;;;1608241;30;21678;-64
2022/06/28 00:47:21;;;;;;;7.40;6.57;;;;;;;;;;1607248;30;21607;-64
2022/06/28 00:48:16;;;;;;;6.65;5.93;;;;;;;;;;1612332;30;21755;-64
2022/06/28 00:49:09;;;;;;;6.95;6.22;;;;;;;;;;1611023;30;22910;-64
2022/06/28 00:50:02;;;;;;;7.28;6.68;;;;;;;;;;1608658;30;21853;-63
2022/06/28 00:50:55;;;;;;;7.05;6.43;;;;;;;;;;1607235;30;21636;-63
2022/06/28 00:51:46;;;;;;;6.60;6.10;;;;;;;;;;1608349;30;21605;-64
2022/06/28 00:53:01;;;;;;;8.73;6.47;;;;;;;;;;1609167;30;21671;-64
2022/06/28 00:53:52;;;;;;;7.20;6.28;;;;;;;;;;1609338;30;21605;-64
2022/06/28 00:54:45;;;;;;;7.13;6.53;;;;;;;;;;1610689;30;21691;-65
2022/06/28 00:55:37;;;;;;;6.93;6.22;;;;;;;;;;1609405;30;22002;-64
2022/06/28 00:56:30;;;;;;;12.50;6.82;;;;;;;;;;1612289;30;21682;-64
2022/06/28 00:57:21;;;;;;;6.72;6.32;;;;;;;;;;1611210;30;22120;-64
2022/06/28 00:58:15;;;;;;;6.53;5.90;;;;;;;;;;1608923;30;21937;-64
2022/06/28 00:59:06;;;;;;;6.25;5.75;;;;;;;;;;1612280;30;21655;-64
2022/06/28 00:59:58;;;;;;;7.15;6.07;;;;;;;;;;1611436;30;21701;-64
2022/06/28 01:00:50;;;;;;;6.78;6.18;;;;;;;;;;1609329;30;21654;-64
2022/06/28 01:01:42;;;;;;;6.30;5.75;;;;;;;;;;1613124;30;21813;-64
2022/06/28 01:02:33;;;;;;;6.35;5.80;;;;;;;;;;1611314;30;21790;-64
2022/06/28 01:03:27;;;;;;;7.07;6.38;;;;;;;;;;1608046;30;22525;-64
2022/06/28 01:04:18;;;;;;;6.78;6.28;;;;;;;;;;1606895;30;22046;-65
2022/06/28 01:05:11;;;;;;;6.57;6.18;;;;;;;;;;1611308;30;21680;-65
2022/06/28 01:06:02;;;;;;;6.68;6.05;;;;;;;;;;1609101;30;21661;-64
2022/06/28 01:06:55;;;;;;;8.00;6.60;;;;;;;;;;1613569;30;22623;-64
2022/06/28 01:07:46;;;;;;;6.63;6.13;;;;;;;;;;1612098;30;22583;-65
2022/06/28 01:08:39;;;;;;;7.90;6.40;;;;;;;;;;1610984;30;21608;-65
2022/06/28 01:09:30;;;;;;;6.82;6.22;;;;;;;;;;1609742;30;21608;-65
2022/06/28 01:10:26;;;;;;;7.45;6.55;;;;;;;;;;1611972;30;21650;-65
2022/06/28 01:11:20;;;;;;;6.47;5.80;;;;;;;;;;1610858;30;22325;-63
2022/06/28 01:12:12;;;;;;;6.57;6.10;;;;;;;;;;1609595;30;21652;-64
2022/06/28 01:13:05;;;;;;;6.30;5.82;;;;;;;;;;1612120;30;21605;-64
2022/06/28 01:14:00;;;;;;;7.32;5.72;;;;;;;;;;1610633;30;21633;-64
2022/06/28 01:14:51;;;;;;;6.47;5.68;;;;;;;;;;1609966;30;21612;-64
2022/06/28 01:15:44;;;;;;;5.90;5.40;;;;;;;;;;1612448;30;22040;-64
2022/06/28 01:16:37;;;;;;;6.68;6.18;;;;;;;;;;1611551;30;21827;-64
2022/06/28 01:17:29;;;;;;;7.05;6.43;;;;;;;;;;1609714;30;21788;-64
2022/06/28 01:18:21;;;;;;;6.47;5.97;;;;;;;;;;1612013;30;21667;-64
2022/06/28 01:19:16;;;;;;;8.38;6.30;;;;;;;;;;1610938;30;21770;-64
2022/06/28 01:20:09;;;;;;;5.93;5.40;;;;;;;;;;1608901;30;22157;-64
2022/06/28 01:21:02;;;;;;;6.13;5.72;;;;;;;;;;1612245;30;22307;-64
2022/06/28 01:21:56;;;;;;;8.35;5.80;;;;;;;;;;1611509;30;21620;-65
2022/06/28 01:22:49;;;;;;;6.18;5.68;;;;;;;;;;1609947;30;21872;-64
2022/06/28 01:23:42;;;;;;;5.72;5.35;;;;;;;;;;1607902;30;21800;-65
2022/06/28 01:24:36;;;;;;;8.68;6.32;;;;;;;;;;1610490;30;21755;-65
2022/06/28 01:25:27;;;;;;;6.28;5.78;;;;;;;;;;1609839;30;22034;-63
2022/06/28 01:26:20;;;;;;;9.93;6.07;;;;;;;;;;1607195;30;21977;-63
2022/06/28 01:27:12;;;;;;;7.07;6.03;;;;;;;;;;1608433;30;22887;-64
2022/06/28 01:28:07;;;;;;;6.40;5.97;;;;;;;;;;1609020;30;21679;-64
2022/06/28 01:28:58;;;;;;;6.13;5.72;;;;;;;;;;1611917;30;22561;-64
2022/06/28 01:29:51;;;;;;;7.50;6.40;;;;;;;;;;1611916;30;21737;-64
2022/06/28 01:30:42;;;;;;;6.28;5.80;;;;;;;;;;1609326;30;22077;-64
2022/06/28 01:31:34;;;;;;;7.45;5.82;;;;;;;;;;1612459;30;21619;-64
2022/06/28 01:32:26;;;;;;;8.70;5.82;;;;;;;;;;1607833;30;22544;-64
2022/06/28 01:33:19;;;;;;;6.70;6.13;;;;;;;;;;1608692;30;21784;-64
2022/06/28 01:34:12;;;;;;;7.30;6.38;;;;;;;;;;1608733;30;21782;-65
2022/06/28 01:35:05;;;;;;;6.30;5.68;;;;;;;;;;1609955;30;21830;-64
2022/06/28 01:35:56;;;;;;;5.75;5.35;;;;;;;;;;1608995;30;21591;-64
2022/06/28 01:36:49;;;;;;;6.32;5.93;;;;;;;;;;1612582;30;21942;-65
2022/06/28 01:37:41;;;;;;;7.72;6.50;;;;;;;;;;1612806;30;22686;-64
2022/06/28 01:38:35;;;;;;;6.32;5.82;;;;;;;;;;1611087;30;21935;-64
2022/06/28 01:39:26;;;;;;;6.18;5.68;;;;;;;;;;1612275;30;22501;-64
2022/06/28 01:40:19;;;;;;;5.82;5.38;;;;;;;;;;1611982;30;21595;-63
2022/06/28 01:41:32;;;;;;;16.90;5.72;;;;;;;;;;1610864;30;21611;-64
2022/06/28 01:42:24;;;;;;;6.13;5.63;;;;;;;;;;1610886;30;22066;-64
2022/06/28 01:43:16;;;;;;;7.10;5.75;;;;;;;;;;1611675;30;21975;-64
2022/06/28 01:44:10;;;;;;;6.28;5.55;;;;;;;;;;1609036;30;21843;-64
2022/06/28 01:45:02;;;;;;;6.30;5.85;;;;;;;;;;1611140;30;21772;-64
2022/06/28 01:45:56;;;;;;;6.38;5.70;;;;;;;;;;1612301;30;21842;-64
2022/06/28 01:46:47;;;;;;;6.95;5.63;;;;;;;;;;1609749;30;21658;-64
2022/06/28 01:47:44;;;;;;;14.55;5.68;;;;;;;;;;1610416;30;21589;-64
2022/06/28 01:48:35;;;;;;;6.22;5.70;;;;;;;;;;1612201;30;22472;-64
2022/06/28 01:49:27;;;;;;;6.50;5.60;;;;;;;;;;1609615;30;21801;-64
2022/06/28 01:50:19;;;;;;;8.35;5.97;;;;;;;;;;1610132;30;21817;-64
2022/06/28 01:51:11;;;;;;;9.95;6.03;;;;;;;;;;1611797;30;21617;-63
2022/06/28 01:52:03;;;;;;;6.55;5.43;;;;;;;;;;1610753;30;22655;-64
2022/06/28 01:52:55;;;;;;;9.75;5.38;;;;;;;;;;1609658;30;21606;-64
2022/06/28 01:53:48;;;;;;;6.05;5.53;;;;;;;;;;1611340;30;21629;-64
2022/06/28 01:54:40;;;;;;;5.40;5.00;;;;;;;;;;1609724;30;21687;-63
2022/06/28 01:55:32;;;;;;;5.45;5.05;;;;;;;;;;1609989;30;21602;-64
2022/06/28 01:56:25;;;;;;;11.43;5.38;;;;;;;;;;1606029;30;21614;-63
2022/06/28 01:57:16;;;;;;;6.50;6.00;;;;;;;;;;1606038;30;22277;-65
2022/06/28 01:58:10;;;;;;;6.22;5.72;;;;;;;;;;1610614;30;21836;-64
2022/06/28 01:59:01;;;;;;;8.13;5.32;;;;;;;;;;1609289;30;21647;-64
2022/06/28 01:59:53;;;;;;;5.90;5.43;;;;;;;;;;1610680;30;22461;-64
2022/06/28 02:00:45;;;;;;;6.93;5.40;;;;;;;;;;1612064;30;21655;-64
2022/06/28 02:01:37;;;;;;;11.68;5.78;;;;;;;;;;1610483;30;22062;-64
2022/06/28 02:02:29;;;;;;;7.95;5.40;;;;;;;;;;1607227;30;21878;-64
2022/06/28 02:03:21;;;;;;;7.07;5.00;;;;;;;;;;1608402;30;22501;-64
2022/06/28 02:04:20;;;;;;;5.88;5.32;;;;;;;;;;1608723;30;21642;-64
2022/06/28 02:05:12;;;;;;;5.80;5.30;;;;;;;;;;1611166;30;21605;-64
2022/06/28 02:06:03;;;;;;;5.55;5.22;;;;;;;;;;1611928;30;21638;-63
2022/06/28 02:06:56;;;;;;;6.40;5.90;;;;;;;;;;1612749;30;21587;-64
2022/06/28 02:07:49;;;;;;;5.38;5.03;;;;;;;;;;1612662;30;22426;-63
2022/06/28 02:08:41;;;;;;;6.03;5.53;;;;;;;;;;1610163;30;21664;-64
2022/06/28 02:09:34;;;;;;;10.75;5.60;;;;;;;;;;1610113;30;22391;-63
2022/06/28 02:10:26;;;;;;;6.90;5.03;;;;;;;;;;1611846;30;21623;-64
2022/06/28 02:11:18;;;;;;;5.38;4.93;;;;;;;;;;1610167;30;21771;-64
2022/06/28 02:12:10;;;;;;;5.20;4.88;;;;;;;;;;1609355;30;21944;-64
2022/06/28 02:13:01;;;;;;;6.00;5.10;;;;;;;;;;1612109;30;21618;-64
2022/06/28 02:13:54;;;;;;;5.47;5.07;;;;;;;;;;1609833;30;21660;-64
2022/06/28 02:15:06;;;;;;;6.65;5.53;;;;;;;;;;1604496;30;22619;-64
2022/06/28 02:15:58;;;;;;;5.68;5.28;;;;;;;;;;1605566;30;22425;-65
2022/06/28 02:16:50;;;;;;;10.93;5.97;;;;;;;;;;1611702;30;21783;-65
2022/06/28 02:17:42;;;;;;;8.63;5.57;;;;;;;;;;1610790;30;21626;-64
2022/06/28 02:18:33;;;;;;;5.28;4.97;;;;;;;;;;1612200;30;21649;-65
2022/06/28 02:19:26;;;;;;;5.45;4.95;;;;;;;;;;1609633;30;22239;-65
2022/06/28 02:20:18;;;;;;;5.70;5.05;;;;;;;;;;1609780;30;21600;-65
2022/06/28 02:21:10;;;;;;;11.23;5.90;;;;;;;;;;1612183;30;21758;-64
2022/06/28 02:22:01;;;;;;;5.65;5.15;;;;;;;;;;1610193;30;21596;-65
2022/06/28 02:22:54;;;;;;;5.90;5.40;;;;;;;;;;1609760;30;22077;-65
2022/06/28 02:23:45;;;;;;;6.30;5.45;;;;;;;;;;1611445;30;21654;-64
2022/06/28 02:24:39;;;;;;;7.00;5.03;;;;;;;;;;1609143;30;21623;-65
2022/06/28 02:25:31;;;;;;;5.45;5.05;;;;;;;;;;1603270;30;21631;-65
2022/06/28 02:26:23;;;;;;;5.63;5.22;;;;;;;;;;1605289;30;21759;-65
2022/06/28 02:27:14;;;;;;;7.53;5.70;;;;;;;;;;1608460;30;21609;-65
2022/06/28 02:28:07;;;;;;;5.18;4.88;;;;;;;;;;1609067;30;21920;-64
2022/06/28 02:28:59;;;;;;;6.30;5.07;;;;;;;;;;1611767;30;21637;-64
2022/06/28 02:29:51;;;;;;;5.35;4.95;;;;;;;;;;1610898;30;21682;-65
2022/06/28 02:30:43;;;;;;;5.45;5.10;;;;;;;;;;1608818;30;21659;-64
2022/06/28 02:31:36;;;;;;;5.15;4.75;;;;;;;;;;1611682;30;21616;-64
2022/06/28 02:32:27;;;;;;;6.32;5.82;;;;;;;;;;1604609;30;23474;-65
2022/06/28 02:33:20;;;;;;;5.30;4.93;;;;;;;;;;1601997;30;21779;-65
2022/06/28 02:40:21;;;;;;;5.90;5.35;;;;;;;;;;1606364;30;21654;-64
2022/06/28 02:40:25;;;;;;;5.70;5.30;;;;;;;;;;1582864;30;21799;-65
2022/06/28 02:41:16;;;;;;;6.03;5.47;;;;;;;;;;1595183;30;22451;-65
2022/06/28 02:42:09;;;;;;;5.50;5.10;;;;;;;;;;1608811;30;22427;-64
2022/06/28 02:43:01;;;;;;;5.80;5.20;;;;;;;;;;1607456;30;21655;-65
2022/06/28 02:43:53;;;;;;;7.82;5.38;;;;;;;;;;1608062;30;22020;-65
2022/06/28 02:44:44;;;;;;;8.07;5.35;;;;;;;;;;1608794;30;21893;-65
2022/06/28 02:45:36;;;;;;;5.63;5.13;;;;;;;;;;1611978;30;21612;-64
2022/06/28 02:46:28;;;;;;;5.38;4.93;;;;;;;;;;1610773;30;22858;-64
2022/06/28 02:47:20;;;;;;;5.97;5.32;;;;;;;;;;1608138;30;21790;-65
2022/06/28 02:48:11;;;;;;;6.05;5.03;;;;;;;;;;1612098;30;22032;-64
2022/06/28 02:49:04;;;;;;;4.45;4.15;;;;;;;;;;1610900;30;21670;-64
2022/06/28 02:49:55;;;;;;;5.07;4.57;;;;;;;;;;1609962;30;22296;-64
2022/06/28 02:50:47;;;;;;;4.53;4.32;;;;;;;;;;1612095;30;22305;-63
2022/06/28 02:51:38;;;;;;;5.18;4.78;;;;;;;;;;1610869;30;21598;-63
2022/06/28 02:52:30;;;;;;;4.97;4.57;;;;;;;;;;1607681;30;21653;-64
2022/06/28 02:53:23;;;;;;;6.95;5.35;;;;;;;;;;1612185;30;21598;-64
2022/06/28 02:54:14;;;;;;;9.05;4.57;;;;;;;;;;1606768;30;22525;-64
2022/06/28 02:55:08;;;;;;;10.15;5.00;;;;;;;;;;1611394;30;21741;-64
2022/06/28 02:56:00;;;;;;;4.90;4.60;;;;;;;;;;1605950;30;22683;-63
2022/06/28 02:56:52;;;;;;;9.43;4.75;;;;;;;;;;1607360;30;21783;-64
2022/06/28 02:57:44;;;;;;;4.80;4.50;;;;;;;;;;1608594;30;21629;-65
2022/06/28 02:58:37;;;;;;;5.25;4.85;;;;;;;;;;1611959;30;21614;-64
2022/06/28 02:59:28;;;;;;;4.68;4.30;;;;;;;;;;1610752;30;21587;-64
2022/06/28 03:00:21;;;;;;;5.40;5.10;;;;;;;;;;1608343;30;22117;-64
2022/06/28 03:01:13;;;;;;;5.53;4.50;;;;;;;;;;1611602;30;22504;-64
2022/06/28 03:02:05;;;;;;;5.30;4.80;;;;;;;;;;1611366;30;22141;-64
2022/06/28 03:02:56;;;;;;;4.93;4.57;;;;;;;;;;1608224;30;21619;-64
2022/06/28 03:03:49;;;;;;;4.88;4.55;;;;;;;;;;1607995;30;21690;-64
2022/06/28 03:04:40;;;;;;;5.07;4.68;;;;;;;;;;1608427;30;21749;-64
2022/06/28 03:05:32;;;;;;;4.82;4.53;;;;;;;;;;1608825;30;21594;-64
2022/06/28 03:06:23;;;;;;;5.28;4.88;;;;;;;;;;1610934;30;22454;-64
2022/06/28 03:07:16;;;;;;;4.97;4.43;;;;;;;;;;1611206;30;22204;-65
2022/06/28 03:08:07;;;;;;;4.88;4.47;;;;;;;;;;1612430;30;21776;-64
2022/06/28 03:08:59;;;;;;;5.05;4.55;;;;;;;;;;1608882;30;21583;-64
2022/06/28 03:09:50;;;;;;;4.40;4.10;;;;;;;;;;1611344;30;22116;-65
2022/06/28 03:10:43;;;;;;;5.13;4.72;;;;;;;;;;1611632;30;21891;-65
2022/06/28 03:11:35;;;;;;;7.40;4.65;;;;;;;;;;1608255;30;21645;-65
2022/06/28 03:12:28;;;;;;;5.47;5.07;;;;;;;;;;1610762;30;21741;-65
2022/06/28 03:13:19;;;;;;;5.38;4.90;;;;;;;;;;1607698;30;21623;-66
2022/06/28 03:14:11;;;;;;;7.85;5.00;;;;;;;;;;1608533;30;21601;-64
2022/06/28 03:15:03;;;;;;;5.47;4.78;;;;;;;;;;1610918;30;22442;-65
2022/06/28 03:15:56;;;;;;;4.90;4.43;;;;;;;;;;1611607;30;21778;-65
2022/06/28 03:16:47;;;;;;;5.45;4.53;;;;;;;;;;1606981;30;21615;-65
2022/06/28 03:17:39;;;;;;;5.88;4.82;;;;;;;;;;1610446;30;22335;-65
2022/06/28 03:18:30;;;;;;;4.97;4.43;;;;;;;;;;1611680;30;21695;-65
2022/06/28 03:19:23;;;;;;;4.50;4.10;;;;;;;;;;1609724;30;21985;-63
2022/06/28 03:20:14;;;;;;;5.10;4.80;;;;;;;;;;1609768;30;21893;-64
2022/06/28 03:21:06;;;;;;;4.70;4.35;;;;;;;;;;1611643;30;22329;-64
2022/06/28 03:21:57;;;;;;;5.65;4.55;;;;;;;;;;1610913;30;21720;-64
2022/06/28 03:22:49;;;;;;;5.28;4.88;;;;;;;;;;1609275;30;21635;-65
2022/06/28 03:23:41;;;;;;;4.93;4.53;;;;;;;;;;1612147;30;21721;-64
2022/06/28 03:24:33;;;;;;;5.50;4.15;;;;;;;;;;1609218;30;21635;-64
2022/06/28 03:25:24;;;;;;;4.95;4.57;;;;;;;;;;1608537;30;21653;-64
2022/06/28 03:26:16;;;;;;;4.53;4.22;;;;;;;;;;1611394;30;22618;-64
2022/06/28 03:27:09;;;;;;;4.45;4.15;;;;;;;;;;1610893;30;21702;-65
2022/06/28 03:28:03;;;;;;;4.72;4.38;;;;;;;;;;1608679;30;22562;-64
2022/06/28 03:28:54;;;;;;;5.00;4.68;;;;;;;;;;1611496;30;21605;-65
2022/06/28 03:29:47;;;;;;;8.13;4.32;;;;;;;;;;1611182;30;22226;-65
2022/06/28 03:30:39;;;;;;;5.05;4.60;;;;;;;;;;1608702;30;21594;-63
2022/06/28 03:31:31;;;;;;;4.30;4.00;;;;;;;;;;1612036;30;21837;-63
2022/06/28 03:32:22;;;;;;;4.47;4.07;;;;;;;;;;1610471;30;22032;-63
2022/06/28 03:33:14;;;;;;;5.05;4.65;;;;;;;;;;1608350;30;21986;-63
2022/06/28 03:34:05;;;;;;;4.78;4.47;;;;;;;;;;1608313;30;22436;-64
2022/06/28 03:34:58;;;;;;;5.10;4.45;;;;;;;;;;1609048;30;21985;-64
2022/06/28 03:35:49;;;;;;;4.57;4.28;;;;;;;;;;1605769;30;21634;-66
2022/06/28 03:36:41;;;;;;;4.20;3.88;;;;;;;;;;1606109;30;22469;-64
2022/06/28 03:37:32;;;;;;;4.93;4.65;;;;;;;;;;1606393;30;21602;-65
2022/06/28 03:38:24;;;;;;;4.72;4.15;;;;;;;;;;1607411;30;22092;-65
2022/06/28 03:39:15;;;;;;;5.07;4.60;;;;;;;;;;1607916;30;21630;-64
2022/06/28 03:40:09;;;;;;;4.97;4.60;;;;;;;;;;1613241;30;22377;-64
2022/06/28 03:41:01;;;;;;;4.82;4.43;;;;;;;;;;1610669;30;21665;-64
2022/06/28 03:41:53;;;;;;;9.52;4.70;;;;;;;;;;1608840;30;21609;-64
2022/06/28 03:42:45;;;;;;;4.55;4.13;;;;;;;;;;1612538;30;21615;-65
2022/06/28 03:43:38;;;;;;;4.45;4.05;;;;;;;;;;1610297;30;22787;-63
2022/06/28 03:44:29;;;;;;;4.72;4.32;;;;;;;;;;1608510;30;21635;-63
2022/06/28 03:45:21;;;;;;;4.05;3.85;;;;;;;;;;1612029;30;22491;-64
2022/06/28 03:46:12;;;;;;;4.25;3.92;;;;;;;;;;1609919;30;22366;-64
2022/06/28 03:47:05;;;;;;;4.80;4.43;;;;;;;;;;1608581;30;21876;-65
2022/06/28 03:47:57;;;;;;;4.15;3.95;;;;;;;;;;1612472;30;21632;-62
2022/06/28 03:48:49;;;;;;;4.18;3.90;;;;;;;;;;1610795;30;22043;-64
2022/06/28 03:49:41;;;;;;;5.60;4.63;;;;;;;;;;1608762;30;22307;-64
2022/06/28 03:50:33;;;;;;;4.75;4.38;;;;;;;;;;1612308;30;22294;-64
2022/06/28 03:51:24;;;;;;;4.35;3.95;;;;;;;;;;1611622;30;22714;-64
2022/06/28 03:52:17;;;;;;;4.40;4.10;;;;;;;;;;1608495;30;22465;-64
2022/06/28 03:53:08;;;;;;;4.18;3.88;;;;;;;;;;1611108;30;21641;-64
2022/06/28 03:53:59;;;;;;;5.13;4.50;;;;;;;;;;1609535;30;21946;-64
2022/06/28 03:54:51;;;;;;;6.32;4.10;;;;;;;;;;1611483;30;22540;-64
2022/06/28 03:55:43;;;;;;;5.35;4.43;;;;;;;;;;1604173;30;21718;-64
2022/06/28 03:56:35;;;;;;;4.53;4.03;;;;;;;;;;1605008;30;22159;-64
2022/06/28 03:57:27;;;;;;;4.38;4.07;;;;;;;;;;1607265;30;21639;-64
2022/06/28 03:58:21;;;;;;;4.30;4.00;;;;;;;;;;1610090;30;21792;-64
2022/06/28 03:59:12;;;;;;;4.18;3.88;;;;;;;;;;1604526;30;21743;-64
2022/06/28 04:00:07;;;;;;;5.50;3.78;;;;;;;;;;1602614;30;21599;-64
2022/06/28 04:00:58;;;;;;;3.67;3.47;;;;;;;;;;1603860;30;21995;-64
2022/06/28 04:01:50;;;;;;;3.90;3.70;;;;;;;;;;1604915;30;21873;-65
2022/06/28 04:02:42;;;;;;;4.85;4.55;;;;;;;;;;1607795;30;22392;-64
2022/06/28 04:03:35;;;;;;;3.72;3.53;;;;;;;;;;1607695;30;21887;-65
2022/06/28 04:04:26;;;;;;;4.25;3.95;;;;;;;;;;1607403;30;21717;-65
2022/06/28 04:05:18;;;;;;;3.97;3.67;;;;;;;;;;1610576;30;22541;-63
2022/06/28 04:06:10;;;;;;;4.32;3.90;;;;;;;;;;1609184;30;22047;-64
2022/06/28 04:07:02;;;;;;;4.10;3.80;;;;;;;;;;1611729;30;21802;-65
2022/06/28 04:07:53;;;;;;;4.25;3.85;;;;;;;;;;1612691;30;21608;-64
2022/06/28 04:08:46;;;;;;;4.93;4.53;;;;;;;;;;1610850;30;22446;-65
2022/06/28 04:09:37;;;;;;;3.55;3.15;;;;;;;;;;1610786;30;21685;-64
2022/06/28 04:10:29;;;;;;;3.92;3.70;;;;;;;;;;1611279;30;21608;-64
2022/06/28 04:11:20;;;;;;;3.88;3.50;;;;;;;;;;1609434;30;22264;-65
2022/06/28 04:12:13;;;;;;;3.88;3.58;;;;;;;;;;1609944;30;21806;-64
2022/06/28 04:13:05;;;;;;;4.47;3.80;;;;;;;;;;1612526;30;21689;-64
2022/06/28 04:13:58;;;;;;;6.63;3.92;;;;;;;;;;1611419;30;21610;-65
2022/06/28 04:14:50;;;;;;;3.80;3.60;;;;;;;;;;1610461;30;21629;-63
2022/06/28 04:15:42;;;;;;;3.92;3.70;;;;;;;;;;1612571;30;22508;-63
2022/06/28 04:16:33;;;;;;;4.32;3.95;;;;;;;;;;1611838;30;21653;-63
2022/06/28 04:17:25;;;;;;;4.88;4.47;;;;;;;;;;1609341;30;21984;-64
2022/06/28 04:18:16;;;;;;;3.95;3.65;;;;;;;;;;1612351;30;21869;-65
2022/06/28 04:19:09;;;;;;;4.18;3.88;;;;;;;;;;1611397;30;22654;-65
2022/06/28 04:20:00;;;;;;;4.53;3.92;;;;;;;;;;1609525;30;21657;-65
2022/06/28 04:20:52;;;;;;;4.15;3.83;;;;;;;;;;1612345;30;21667;-64
2022/06/28 04:21:44;;;;;;;3.85;3.55;;;;;;;;;;1611695;30;21638;-64
2022/06/28 04:22:36;;;;;;;3.63;3.33;;;;;;;;;;1609541;30;22073;-64
2022/06/28 04:23:27;;;;;;;6.65;3.85;;;;;;;;;;1606055;30;21628;-65
2022/06/28 04:24:19;;;;;;;6.35;3.60;;;;;;;;;;1602562;30;21595;-65
2022/06/28 04:25:11;;;;;;;4.10;3.80;;;;;;;;;;1606733;30;21601;-65
2022/06/28 04:26:03;;;;;;;3.85;3.53;;;;;;;;;;1613354;30;21646;-64
2022/06/28 04:26:54;;;;;;;3.97;3.67;;;;;;;;;;1611507;30;21810;-64
2022/06/28 04:27:47;;;;;;;3.80;3.60;;;;;;;;;;1609228;30;21701;-64
2022/06/28 04:28:38;;;;;;;3.50;3.30;;;;;;;;;;1613416;30;21609;-65
2022/06/28 04:29:32;;;;;;;3.90;3.60;;;;;;;;;;1611758;30;22000;-64
2022/06/28 04:30:25;;;;;;;3.75;3.47;;;;;;;;;;1609489;30;21608;-64
2022/06/28 04:31:17;;;;;;;6.20;3.53;;;;;;;;;;1606148;30;21756;-65
2022/06/28 04:32:09;;;;;;;3.70;3.42;;;;;;;;;;1605204;30;22223;-65
2022/06/28 04:33:01;;;;;;;4.00;3.70;;;;;;;;;;1601790;30;21652;-63
2022/06/28 04:33:52;;;;;;;4.10;3.80;;;;;;;;;;1603017;30;21945;-64
2022/06/28 04:34:45;;;;;;;3.50;3.28;;;;;;;;;;1608986;30;22684;-64
2022/06/28 04:35:36;;;;;;;4.20;3.90;;;;;;;;;;1609753;30;21618;-64
2022/06/28 04:36:28;;;;;;;3.35;3.15;;;;;;;;;;1611926;30;21650;-65
2022/06/28 04:37:19;;;;;;;3.58;3.30;;;;;;;;;;1612113;30;22602;-64
2022/06/28 04:38:11;;;;;;;5.10;3.20;;;;;;;;;;1612370;30;21755;-66
2022/06/28 04:39:03;;;;;;;4.13;3.83;;;;;;;;;;1609053;30;21684;-65
2022/06/28 04:39:55;;;;;;;3.88;3.58;;;;;;;;;;1613189;30;22537;-64
2022/06/28 04:40:47;;;;;;;4.22;3.83;;;;;;;;;;1607902;30;21617;-64
2022/06/28 04:41:39;;;;;;;3.95;3.40;;;;;;;;;;1607398;30;21746;-64
2022/06/28 04:42:30;;;;;;;3.63;3.42;;;;;;;;;;1612421;30;21625;-64
2022/06/28 04:43:22;;;;;;;3.65;3.45;;;;;;;;;;1611665;30;21672;-65
2022/06/28 04:44:14;;;;;;;6.85;3.95;;;;;;;;;;1608909;30;21724;-64
2022/06/28 04:45:09;;;;;;;3.53;3.33;;;;;;;;;;1611676;30;22617;-64
2022/06/28 04:46:00;;;;;;;3.92;3.65;;;;;;;;;;1612513;30;21594;-64
2022/06/28 04:46:52;;;;;;;3.80;3.50;;;;;;;;;;1609463;30;21635;-63
2022/06/28 04:47:43;;;;;;;3.65;3.30;;;;;;;;;;1611579;30;22513;-64
2022/06/28 04:48:35;;;;;;;3.35;3.15;;;;;;;;;;1612526;30;21800;-64
2022/06/28 04:49:27;;;;;;;3.90;3.55;;;;;;;;;;1609876;30;21630;-64
2022/06/28 04:50:19;;;;;;;3.40;3.20;;;;;;;;;;1610793;30;22240;-64
2022/06/28 04:51:13;;;;;;;5.68;3.20;;;;;;;;;;1612416;30;22078;-65
2022/06/28 04:52:07;;;;;;;3.28;3.08;;;;;;;;;;1610479;30;22531;-64
2022/06/28 04:52:59;;;;;;;4.05;3.55;;;;;;;;;;1611269;30;21623;-64
2022/06/28 04:53:51;;;;;;;3.53;3.22;;;;;;;;;;1611182;30;22039;-64
2022/06/28 04:54:42;;;;;;;5.13;3.40;;;;;;;;;;1612991;30;21652;-63
2022/06/28 04:55:34;;;;;;;3.20;3.00;;;;;;;;;;1610484;30;21756;-64
2022/06/28 04:56:26;;;;;;;3.95;3.70;;;;;;;;;;1612386;30;21618;-64
2022/06/28 04:57:18;;;;;;;3.30;3.00;;;;;;;;;;1611056;30;22774;-64
2022/06/28 04:58:09;;;;;;;3.20;3.00;;;;;;;;;;1609699;30;22070;-64
2022/06/28 04:59:01;;;;;;;3.78;3.47;;;;;;;;;;1612356;30;21811;-64
2022/06/28 04:59:52;;;;;;;3.72;3.10;;;;;;;;;;1612773;30;21699;-64
2022/06/28 05:00:46;;;;;;;3.58;3.38;;;;;;;;;;1610139;30;21640;-65
2022/06/28 05:01:37;;;;;;;3.83;3.22;;;;;;;;;;1612211;30;21643;-64
2022/06/28 05:02:29;;;;;;;6.18;3.60;;;;;;;;;;1612311;30;22929;-64
2022/06/28 05:03:20;;;;;;;3.47;3.17;;;;;;;;;;1608982;30;21601;-65
2022/06/28 05:04:13;;;;;;;3.30;3.10;;;;;;;;;;1609094;30;21739;-64
2022/06/28 05:05:05;;;;;;;3.40;3.20;;;;;;;;;;1612226;30;22086;-65
2022/06/28 05:05:57;;;;;;;3.10;2.90;;;;;;;;;;1609903;30;21835;-64
2022/06/28 05:06:48;;;;;;;3.20;2.90;;;;;;;;;;1611749;30;21593;-65
2022/06/28 05:07:41;;;;;;;3.30;3.10;;;;;;;;;;1612307;30;21600;-65
2022/06/28 05:08:32;;;;;;;3.45;3.20;;;;;;;;;;1611361;30;22204;-65
2022/06/28 05:09:24;;;;;;;5.97;3.42;;;;;;;;;;1608924;30;21913;-64
2022/06/28 05:10:15;;;;;;;6.18;3.38;;;;;;;;;;1611711;30;21628;-64
2022/06/28 05:11:07;;;;;;;3.13;2.92;;;;;;;;;;1611692;30;21587;-64
2022/06/28 05:11:59;;;;;;;3.22;3.03;;;;;;;;;;1609182;30;21631;-64
2022/06/28 05:12:51;;;;;;;3.47;3.15;;;;;;;;;;1612414;30;21809;-65
2022/06/28 05:13:42;;;;;;;3.38;3.17;;;;;;;;;;1607725;30;21664;-64
2022/06/28 05:14:35;;;;;;;3.83;3.28;;;;;;;;;;1609104;30;21747;-65
2022/06/28 05:15:26;;;;;;;3.35;3.15;;;;;;;;;;1612934;30;21659;-65
2022/06/28 05:16:20;;;;;;;6.90;3.60;;;;;;;;;;1611073;30;22393;-64
2022/06/28 05:17:12;;;;;;;3.20;3.00;;;;;;;;;;1608595;30;21976;-65
2022/06/28 05:18:04;;;;;;;5.55;3.47;;;;;;;;;;1613180;30;21657;-64
2022/06/28 05:18:55;;;;;;;11.82;3.60;;;;;;;;;;1610432;30;21662;-65
2022/06/28 05:19:48;;;;;;;3.72;3.42;;;;;;;;;;1609067;30;22366;-65